Terminal Aerodrome Forecast
Issued by NWS Bismarck, ND

Home | Current Version | Previous Version | Graphics & Text | Print | Product List | Glossary On
Versions: 1 2 3 4 5 6 7 8 9 10 11 12 13 14 15 16 17 18 19 20 21 22
000
FTUS43 KBIS 180200 AAA
TAFISN
TAF AMD
KISN 180258Z 1803/1824 07004KT P6SM SKC
     FM180800 13007KT P6SM FEW300
     FM181500 19006KT P6SM SCT180
     FM181700 23008KT P6SM SCT080 BKN110
     FM182100 32018G25KT P6SM -RA BKN050 OVC070=

USA.gov is the U.S. government's official web portal to all federal, state and local government web resources and services.